Aérodrome :
LOGIN :

S'inscrire | Disclaimer

   EN    FR    IT 

 










Légende :    VFR   VFR Marginal   IFR   IFR Intensif   IFR Très Intensif
Visi : 
Plafond : 
>= 8 km
>= 3000ft
5 à 8 km
1000 à 3000 ft
1500m à 5 km
500 à 1000 ft
800 à 1500m
200 à 500 ft
< 800m
< 200 ft
Symboles :   Orages  Brouillard  Fortes neiges  Fortes précipitations  Vent > 20 kt
SIGMETs :   Divers  Orages  Givrage  Turbulence  Onde Orograph.  Cendres Volcan.







- Altitude de l'aérodrome : 2044 ft


ETSA - Landsberg-Lech AB

DERNIER METAR :
  • 280920Z 25007KT 9999 FEW032 SCT110 BKN180 21/12 Q1004 BLU BLU TEMPO WHT

METARs EXPIRÉS :
  • 280820Z 24011KT 9999 FEW028 BKN110 20/12 Q1004 BLU BLU TEMPO WHT
  • 280720Z 23011KT 9999 FEW020 BKN110 19/14 Q1004 BLU BLU TEMPO WHT

TAF TAF ETSA
Valide du 28 à 08h jusqu'au 28 à 17h UTC


280720Z 2808/2817 23010G20KT 9999 NSW SCT050 BKN100
TEMPO 2808/2817 25012G22KT 6000 -SHRA SCT015 BKN030TCU
PROB30 2808/2817 VRB15G25KT 3000 TSRA SCT010 BKN020CB BY ETGL
Pas de NOTAMs connus pour ce terrain.
1 SIGMET publié pour la FIR München (EDMM) :
 
Orages noyés dans la masse
EDMM SIGMET 2 VALID 281004/281200 EDZM
EDMM MUNCHEN FIR EMBD TS OBS WI N5155 E01209 - N5130 E01330 - N5030 E01245 - N5100 E01040 - N5123 E01027 - N5152 E01112 - N5155 E01209 TOP FL400 MOV N NC=



MET'MAP, la Météo Aéronautique d'un coup d'oeil ! - Copyright ORBIFLY Décembre 2007 - Disclaimer

ORBIFLY MET'MAP TEAM :

Programmation & Développement : Alexandra Zaïnal
Conception & Développement : Baudouin d'Aumeries
Co-Programmation & Développement : Marc-Olivier Méhu
Soutien technique & logistique : Manuel Goepfert

Contact : metmap@orbifly.com




SOURCES & CREDITS :

   NOAA